Time;durP1;ratioP1;P1;durP2;ratioP2;P2;SDS_P1;SDS_P2;PMS_P1;PMS_P2;Temp;Humidity;BMP_temperature;BMP_pressure;BME280_temperature;BME280_humidity;BME280_pressure;Samples;Min_cycle;Max_cycle;Signal;HPM_P1;HPM_P2
2022/10/09 00:01:52;;;;;;;7.77;7.17;;;10.00;99.90;;;;;;6224259;23;20439;-83
2022/10/09 00:04:19;;;;;;;7.93;7.30;;;10.00;99.90;;;;;;6224872;23;20431;-83
2022/10/09 00:06:46;;;;;;;9.23;7.77;;;9.90;99.90;;;;;;6224740;23;20729;-83
2022/10/09 00:09:13;;;;;;;10.00;7.30;;;9.90;99.90;;;;;;6223577;23;20769;-82
2022/10/09 00:11:39;;;;;;;7.13;6.57;;;9.90;99.90;;;;;;6222810;23;20441;-83
2022/10/09 00:14:06;;;;;;;24.30;8.83;;;9.90;99.90;;;;;;6223370;23;20443;-83
2022/10/09 00:16:33;;;;;;;7.13;6.53;;;9.90;99.90;;;;;;6223489;23;20411;-83
2022/10/09 00:19:01;;;;;;;8.40;7.70;;;9.90;99.90;;;;;;6223314;23;20489;-83
2022/10/09 00:21:30;;;;;;;9.43;8.48;;;9.80;99.90;;;;;;6223639;23;20645;-83
2022/10/09 00:24:00;;;;;;;9.07;8.00;;;9.80;99.90;;;;;;6223145;23;20703;-82
2022/10/09 00:26:27;;;;;;;10.60;7.47;;;9.80;99.90;;;;;;6223042;23;20179;-84
2022/10/09 00:28:54;;;;;;;8.23;7.40;;;9.80;99.90;;;;;;6223043;23;20414;-84
2022/10/09 00:31:22;;;;;;;8.85;8.07;;;9.70;99.90;;;;;;6223304;23;20489;-83
2022/10/09 00:33:49;;;;;;;7.27;6.30;;;9.70;99.90;;;;;;6222619;23;20515;-83
2022/10/09 00:36:19;;;;;;;7.20;6.63;;;9.70;99.90;;;;;;6222354;23;20411;-83
2022/10/09 00:38:46;;;;;;;6.77;6.20;;;9.70;99.90;;;;;;6222422;23;20247;-84
2022/10/09 00:41:16;;;;;;;7.70;7.10;;;9.60;99.90;;;;;;6221895;23;20418;-84
2022/10/09 00:43:46;;;;;;;7.40;6.60;;;9.60;99.90;;;;;;6222705;23;20406;-84
2022/10/09 00:46:25;;;;;;;7.23;6.60;;;9.60;99.90;;;;;;6222572;23;20238;-84
2022/10/09 00:48:58;;;;;;;8.35;7.65;;;9.60;99.90;;;;;;6221385;23;20429;-83
2022/10/09 00:51:27;;;;;;;6.82;6.40;;;9.50;99.90;;;;;;6221722;23;20194;-83
2022/10/09 00:53:54;;;;;;;7.95;7.15;;;9.50;99.90;;;;;;6221187;23;20198;-82
2022/10/09 00:56:21;;;;;;;6.78;6.18;;;9.40;99.90;;;;;;6221313;23;20184;-83
2022/10/09 00:58:52;;;;;;;8.68;7.57;;;9.40;99.90;;;;;;6220748;23;20187;-82
2022/10/09 01:01:19;;;;;;;10.00;7.10;;;9.40;99.90;;;;;;6220792;23;20171;-82
2022/10/09 01:03:46;;;;;;;6.75;6.25;;;9.40;99.90;;;;;;6220539;23;20441;-82
2022/10/09 01:06:18;;;;;;;7.75;6.70;;;9.30;99.90;;;;;;6220412;23;20187;-83
2022/10/09 01:08:51;;;;;;;7.10;6.50;;;9.30;99.90;;;;;;6221124;23;20165;-82
2022/10/09 01:11:30;;;;;;;8.33;7.30;;;9.30;99.90;;;;;;6222180;23;20214;-83
2022/10/09 01:14:03;;;;;;;7.82;6.70;;;9.30;99.90;;;;;;6221376;23;20440;-83
2022/10/09 01:16:35;;;;;;;7.50;6.60;;;9.20;99.90;;;;;;6221465;23;20175;-82
2022/10/09 01:19:12;;;;;;;7.93;7.22;;;9.20;99.90;;;;;;6221255;23;20163;-83
2022/10/09 01:21:46;;;;;;;7.77;6.97;;;9.10;99.90;;;;;;6220723;23;20170;-82
2022/10/09 01:24:24;;;;;;;8.97;6.20;;;9.10;99.90;;;;;;6220588;23;20444;-83
2022/10/09 01:27:04;;;;;;;9.15;8.27;;;9.10;99.90;;;;;;6220975;23;20395;-82
2022/10/09 01:29:35;;;;;;;7.47;6.90;;;9.10;99.90;;;;;;6220439;23;20183;-83
2022/10/09 01:32:03;;;;;;;10.50;7.13;;;9.00;99.90;;;;;;6220943;23;20406;-83
2022/10/09 01:34:31;;;;;;;10.40;7.40;;;9.00;99.90;;;;;;6220690;23;20448;-83
2022/10/09 01:36:58;;;;;;;6.97;6.30;;;9.00;99.90;;;;;;6220332;23;20410;-83
2022/10/09 01:39:27;;;;;;;8.20;7.43;;;8.90;99.90;;;;;;6221247;23;20179;-83
2022/10/09 01:41:54;;;;;;;7.93;7.03;;;8.90;99.90;;;;;;6221172;23;20185;-82
2022/10/09 01:44:24;;;;;;;7.47;6.78;;;8.90;99.90;;;;;;6221557;23;20209;-82
2022/10/09 01:46:51;;;;;;;7.82;7.18;;;8.90;99.90;;;;;;6220623;23;20690;-82
2022/10/09 01:49:38;;;;;;;7.22;6.53;;;8.90;99.90;;;;;;6221158;23;20647;-82
2022/10/09 01:52:14;;;;;;;6.40;5.90;;;8.80;99.90;;;;;;6220795;23;20167;-82
2022/10/09 01:54:54;;;;;;;6.80;6.30;;;8.80;99.90;;;;;;6220644;23;20200;-82
2022/10/09 01:57:28;;;;;;;7.43;6.70;;;8.80;99.90;;;;;;6221123;23;20164;-82
2022/10/09 01:59:59;;;;;;;7.10;6.40;;;8.80;99.90;;;;;;6220790;23;20164;-83
2022/10/09 02:02:27;;;;;;;7.15;6.55;;;8.80;99.90;;;;;;6220313;23;20168;-82
2022/10/09 02:04:54;;;;;;;7.68;7.07;;;8.70;99.90;;;;;;6221683;23;20198;-82
2022/10/09 02:07:23;;;;;;;7.22;6.50;;;8.70;99.90;;;;;;6222158;23;20214;-83
2022/10/09 02:09:50;;;;;;;8.18;7.35;;;8.70;99.90;;;;;;6221235;23;20217;-83
2022/10/09 02:12:20;;;;;;;7.20;6.50;;;8.70;99.90;;;;;;6222149;23;20179;-83
2022/10/09 02:14:47;;;;;;;7.10;6.10;;;8.70;99.90;;;;;;6221771;23;20438;-83
2022/10/09 02:17:21;;;;;;;7.60;6.85;;;8.60;99.90;;;;;;6223899;23;20178;-83
2022/10/09 02:19:52;;;;;;;8.35;7.72;;;8.60;99.90;;;;;;6223344;23;20191;-83
2022/10/09 02:22:22;;;;;;;7.72;7.03;;;8.60;99.90;;;;;;6223788;23;20167;-82
2022/10/09 02:24:49;;;;;;;8.30;7.50;;;8.60;99.90;;;;;;6223668;23;20199;-83
2022/10/09 02:27:18;;;;;;;9.45;8.48;;;8.60;99.90;;;;;;6223793;23;20186;-83
2022/10/09 02:29:46;;;;;;;8.10;7.35;;;8.60;99.90;;;;;;6222854;23;20203;-82
2022/10/09 02:32:15;;;;;;;8.45;7.75;;;8.50;99.90;;;;;;6223250;23;20179;-83
2022/10/09 02:34:43;;;;;;;8.15;7.35;;;8.60;99.90;;;;;;6223189;23;20213;-83
2022/10/09 02:37:09;;;;;;;8.27;7.57;;;8.50;99.90;;;;;;6223902;23;20192;-83
2022/10/09 02:39:36;;;;;;;8.05;7.30;;;8.50;99.90;;;;;;6230611;23;20169;-83
2022/10/09 02:42:03;;;;;;;8.10;7.32;;;8.50;99.90;;;;;;6231101;23;20173;-83
2022/10/09 02:44:30;;;;;;;6.95;6.43;;;8.50;99.90;;;;;;6227947;23;20210;-82
2022/10/09 02:46:56;;;;;;;10.38;6.82;;;8.50;99.90;;;;;;6226643;23;20188;-82
2022/10/09 02:49:24;;;;;;;7.30;6.63;;;8.40;99.90;;;;;;6225542;23;20757;-82
2022/10/09 02:51:51;;;;;;;7.75;7.05;;;8.50;99.90;;;;;;6226859;23;20241;-82
2022/10/09 02:54:18;;;;;;;8.75;6.80;;;8.40;99.90;;;;;;6225477;23;20709;-82
2022/10/09 02:56:45;;;;;;;9.38;7.03;;;8.40;99.90;;;;;;6225193;23;20182;-83
2022/10/09 02:59:12;;;;;;;7.20;6.50;;;8.40;99.90;;;;;;6224367;23;20191;-82
2022/10/09 03:01:38;;;;;;;7.50;6.80;;;8.40;99.90;;;;;;6223241;23;20174;-83
2022/10/09 03:04:05;;;;;;;11.10;9.98;;;8.30;99.90;;;;;;6222857;23;20203;-82
2022/10/09 03:06:33;;;;;;;7.53;7.00;;;8.30;99.90;;;;;;6222484;23;20658;-83
2022/10/09 03:09:00;;;;;;;9.88;8.88;;;8.30;99.90;;;;;;6221588;23;20188;-83
2022/10/09 03:11:27;;;;;;;8.00;7.30;;;8.30;99.90;;;;;;6222353;23;20198;-83
2022/10/09 03:13:54;;;;;;;8.57;7.65;;;8.30;99.90;;;;;;6222111;23;20206;-83
2022/10/09 03:16:24;;;;;;;8.82;7.72;;;8.30;99.90;;;;;;6222882;23;20664;-83
2022/10/09 03:18:52;;;;;;;7.80;7.10;;;8.20;99.90;;;;;;6222410;23;20648;-83
2022/10/09 03:21:21;;;;;;;9.05;7.90;;;8.20;99.90;;;;;;6222672;23;20197;-83
2022/10/09 03:23:49;;;;;;;7.88;7.03;;;8.20;99.90;;;;;;6223048;23;20182;-82
2022/10/09 03:26:18;;;;;;;6.88;6.25;;;8.20;99.90;;;;;;6222286;23;20190;-83
2022/10/09 03:28:47;;;;;;;7.05;6.53;;;8.10;99.90;;;;;;6222381;23;20502;-83
2022/10/09 03:31:15;;;;;;;7.32;6.70;;;8.10;99.90;;;;;;6222957;23;20203;-83
2022/10/09 03:33:42;;;;;;;6.75;6.25;;;8.10;99.90;;;;;;6234821;23;20166;-83
2022/10/09 03:36:09;;;;;;;8.30;7.60;;;8.00;99.90;;;;;;6225197;23;20192;-82
2022/10/09 03:38:36;;;;;;;8.05;7.30;;;8.10;99.90;;;;;;6225917;23;20178;-82
2022/10/09 03:41:05;;;;;;;8.57;6.47;;;8.00;99.90;;;;;;6225601;23;20206;-82
2022/10/09 03:43:32;;;;;;;9.02;6.40;;;8.00;99.90;;;;;;6225902;23;20509;-82
2022/10/09 03:45:59;;;;;;;8.40;7.07;;;8.00;99.90;;;;;;6224887;23;20190;-82
2022/10/09 03:48:26;;;;;;;9.02;8.13;;;8.00;99.90;;;;;;6224570;23;20190;-82
2022/10/09 03:50:53;;;;;;;7.50;6.80;;;8.00;99.90;;;;;;6224768;23;20198;-82
2022/10/09 03:53:19;;;;;;;9.60;7.05;;;8.00;99.90;;;;;;6224397;23;20182;-82
2022/10/09 03:55:46;;;;;;;7.55;6.88;;;7.90;99.90;;;;;;6223572;23;20197;-82
2022/10/09 03:58:14;;;;;;;7.18;6.53;;;7.90;99.90;;;;;;6223734;23;20190;-82
2022/10/09 04:00:44;;;;;;;7.72;7.03;;;7.90;99.90;;;;;;6223852;23;20174;-82
2022/10/09 04:03:10;;;;;;;8.13;7.32;;;7.90;99.90;;;;;;6224867;23;20181;-82
2022/10/09 04:05:39;;;;;;;6.90;6.25;;;7.90;99.90;;;;;;6224546;23;20674;-83
2022/10/09 04:08:05;;;;;;;9.15;6.38;;;7.80;99.90;;;;;;6223778;23;20178;-82
2022/10/09 04:10:32;;;;;;;7.72;6.63;;;7.90;99.90;;;;;;6223380;23;20202;-82
2022/10/09 04:12:59;;;;;;;6.90;6.25;;;7.80;99.90;;;;;;6223337;23;20411;-82
2022/10/09 04:15:27;;;;;;;7.40;6.80;;;7.80;99.90;;;;;;6222859;23;20202;-83
2022/10/09 04:17:54;;;;;;;7.30;6.70;;;7.80;99.90;;;;;;6222027;23;20178;-83
2022/10/09 04:20:21;;;;;;;10.32;9.32;;;7.80;99.90;;;;;;6222283;23;20178;-82
2022/10/09 04:22:48;;;;;;;7.85;6.75;;;7.70;99.90;;;;;;6222183;23;20186;-82
2022/10/09 04:25:14;;;;;;;6.43;5.82;;;7.80;99.90;;;;;;6234949;23;20208;-82
2022/10/09 04:27:41;;;;;;;7.75;7.05;;;7.80;99.90;;;;;;6226706;23;20184;-82
2022/10/09 04:30:09;;;;;;;12.77;8.15;;;7.80;99.90;;;;;;6225746;23;20178;-82
2022/10/09 04:32:37;;;;;;;8.20;7.50;;;7.70;99.90;;;;;;6226500;23;20178;-82
2022/10/09 04:35:05;;;;;;;8.25;7.55;;;7.70;99.90;;;;;;6226110;23;20209;-82
2022/10/09 04:37:31;;;;;;;7.45;6.95;;;7.70;99.90;;;;;;6225010;23;20699;-82
2022/10/09 04:39:58;;;;;;;7.68;6.80;;;7.70;99.90;;;;;;6224965;23;20201;-82
2022/10/09 04:42:25;;;;;;;8.07;7.38;;;7.60;99.90;;;;;;6224235;23;20182;-83
2022/10/09 04:44:52;;;;;;;7.75;6.40;;;7.70;99.90;;;;;;6222144;23;20204;-82
2022/10/09 04:47:18;;;;;;;7.03;6.32;;;7.60;99.90;;;;;;6222933;23;20523;-82
2022/10/09 04:49:47;;;;;;;8.68;7.80;;;7.60;99.90;;;;;;6227191;23;20181;-81
2022/10/09 04:52:14;;;;;;;8.30;7.18;;;7.60;99.90;;;;;;6242325;23;20249;-81
2022/10/09 04:54:40;;;;;;;7.97;7.28;;;7.60;99.90;;;;;;6242365;23;20242;-81
2022/10/09 04:57:07;;;;;;;9.93;9.00;;;7.50;99.90;;;;;;6228493;23;20237;-83
2022/10/09 04:59:34;;;;;;;8.75;7.88;;;7.50;99.90;;;;;;6223159;23;20185;-83
2022/10/09 05:02:01;;;;;;;9.30;7.68;;;7.50;99.90;;;;;;6221956;23;20174;-83
2022/10/09 05:04:27;;;;;;;8.30;6.97;;;7.50;99.90;;;;;;6222628;23;20210;-83
2022/10/09 05:06:56;;;;;;;9.35;8.35;;;7.40;99.90;;;;;;6221626;23;20183;-82
2022/10/09 05:09:22;;;;;;;8.38;7.57;;;7.50;99.90;;;;;;6221810;23;20189;-82
2022/10/09 05:11:49;;;;;;;8.68;7.88;;;7.50;99.90;;;;;;6221711;23;20205;-82
2022/10/09 05:14:16;;;;;;;7.53;6.85;;;7.40;99.90;;;;;;6221355;23;20204;-83
2022/10/09 05:16:43;;;;;;;8.45;7.45;;;7.40;99.90;;;;;;6223933;23;20177;-82
2022/10/09 05:19:09;;;;;;;8.15;6.00;;;7.40;99.90;;;;;;6224818;23;20177;-82
2022/10/09 05:21:36;;;;;;;8.80;7.90;;;7.40;99.90;;;;;;6223482;23;20184;-83
2022/10/09 05:24:04;;;;;;;6.97;6.38;;;7.50;99.90;;;;;;6223761;23;20682;-83
2022/10/09 05:26:31;;;;;;;7.40;6.70;;;7.50;99.90;;;;;;6223136;23;20668;-82
2022/10/09 05:28:58;;;;;;;7.60;6.90;;;7.50;99.90;;;;;;6220972;23;20182;-82
2022/10/09 05:31:27;;;;;;;7.05;6.18;;;7.40;99.90;;;;;;6221355;23;20205;-82
2022/10/09 05:33:54;;;;;;;7.20;6.40;;;7.40;99.90;;;;;;6221159;23;20263;-82
2022/10/09 05:36:21;;;;;;;7.22;6.15;;;7.50;99.90;;;;;;6221666;23;20164;-83
2022/10/09 05:38:48;;;;;;;9.13;6.63;;;7.50;99.90;;;;;;6220568;23;20178;-82
2022/10/09 05:41:18;;;;;;;8.02;7.32;;;7.50;99.90;;;;;;6221297;23;20483;-82
2022/10/09 05:43:47;;;;;;;7.18;6.38;;;7.50;99.90;;;;;;6220871;23;20213;-82
2022/10/09 05:46:16;;;;;;;8.52;6.40;;;7.50;99.90;;;;;;6220863;23;20182;-82
2022/10/09 05:48:46;;;;;;;10.70;7.15;;;7.50;99.90;;;;;;6221942;23;20182;-82
2022/10/09 05:51:15;;;;;;;12.75;5.65;;;7.60;99.90;;;;;;6223503;23;20198;-82
2022/10/09 05:53:43;;;;;;;15.45;11.35;;;7.60;99.90;;;;;;6223189;23;20177;-82
2022/10/09 05:56:16;;;;;;;9.40;6.30;;;7.60;99.90;;;;;;6222954;23;20535;-82
2022/10/09 05:58:44;;;;;;;7.25;6.65;;;7.60;99.90;;;;;;6222873;23;20524;-82
2022/10/09 06:01:11;;;;;;;7.60;7.05;;;7.60;99.90;;;;;;6223262;23;20175;-82
2022/10/09 06:03:38;;;;;;;8.57;7.05;;;7.70;99.90;;;;;;6223136;23;20177;-82
2022/10/09 06:06:07;;;;;;;15.57;7.57;;;7.70;99.90;;;;;;6223951;23;20206;-82
2022/10/09 06:08:35;;;;;;;8.65;7.85;;;7.80;99.90;;;;;;6233750;23;20210;-82
2022/10/09 06:11:10;;;;;;;7.78;7.00;;;7.80;99.90;;;;;;6228561;23;20204;-82
2022/10/09 06:13:38;;;;;;;7.35;5.88;;;7.80;99.90;;;;;;6228073;23;20188;-82
2022/10/09 06:16:10;;;;;;;7.30;6.70;;;7.80;99.90;;;;;;6227978;23;20189;-82
2022/10/09 06:18:37;;;;;;;8.85;7.97;;;7.80;99.90;;;;;;6226849;23;20166;-82
2022/10/09 06:21:04;;;;;;;9.55;7.78;;;7.80;99.90;;;;;;6226432;23;20184;-83
2022/10/09 06:23:31;;;;;;;8.02;7.22;;;7.80;99.90;;;;;;6224950;23;20186;-82
2022/10/09 06:25:59;;;;;;;8.82;7.60;;;7.80;99.90;;;;;;6225047;23;20182;-82
2022/10/09 06:28:27;;;;;;;12.38;8.70;;;7.90;99.90;;;;;;6224368;23;20214;-83
2022/10/09 06:31:01;;;;;;;8.30;7.50;;;8.00;99.90;;;;;;6224776;23;20208;-82
2022/10/09 06:33:29;;;;;;;9.18;8.30;;;8.00;99.90;;;;;;6225633;23;20166;-82
2022/10/09 06:35:59;;;;;;;7.22;6.53;;;8.00;99.90;;;;;;6224863;23;20283;-82
2022/10/09 06:38:26;;;;;;;9.70;8.70;;;8.10;99.90;;;;;;6224463;23;20178;-83
2022/10/09 06:40:53;;;;;;;9.52;8.68;;;8.10;99.90;;;;;;6222852;23;20188;-82
2022/10/09 06:43:19;;;;;;;9.02;8.20;;;8.20;99.90;;;;;;6222453;23;20518;-82
2022/10/09 06:45:46;;;;;;;10.40;9.30;;;8.20;99.90;;;;;;6222064;23;20206;-82
2022/10/09 06:48:14;;;;;;;9.40;8.50;;;8.20;99.90;;;;;;6223013;23;20190;-84
2022/10/09 06:50:41;;;;;;;9.10;8.20;;;8.30;99.90;;;;;;6223166;23;20181;-84
2022/10/09 06:53:08;;;;;;;10.10;9.20;;;8.30;99.90;;;;;;6223588;23;20267;-84
2022/10/09 06:55:34;;;;;;;14.40;7.90;;;8.40;99.90;;;;;;6223661;23;20282;-84
2022/10/09 06:58:01;;;;;;;8.43;7.78;;;8.50;99.90;;;;;;6223364;23;20235;-83
2022/10/09 07:00:28;;;;;;;9.75;8.63;;;8.60;99.90;;;;;;6233728;23;20166;-80
2022/10/09 07:02:55;;;;;;;10.02;8.38;;;8.80;99.90;;;;;;6225350;23;20190;-84
2022/10/09 07:05:23;;;;;;;11.93;8.00;;;8.80;99.90;;;;;;6224129;23;20288;-81
2022/10/09 07:07:50;;;;;;;11.93;7.70;;;8.90;99.90;;;;;;6223642;23;20183;-83
2022/10/09 07:10:20;;;;;;;10.45;9.15;;;9.00;99.90;;;;;;6221450;23;20982;-83
2022/10/09 07:12:47;;;;;;;8.18;7.40;;;9.10;99.90;;;;;;6218326;23;20203;-84
2022/10/09 07:15:14;;;;;;;9.30;8.30;;;9.20;99.90;;;;;;6217882;23;20209;-83
2022/10/09 07:17:40;;;;;;;11.00;7.20;;;9.40;99.90;;;;;;6217065;23;20184;-81
2022/10/09 07:20:07;;;;;;;8.87;7.40;;;9.50;99.90;;;;;;6218329;23;20914;-84
2022/10/09 07:22:36;;;;;;;11.50;8.20;;;9.60;99.90;;;;;;6219724;23;20411;-85
2022/10/09 07:25:03;;;;;;;9.93;7.05;;;9.70;99.90;;;;;;6221437;23;20466;-83
2022/10/09 07:27:30;;;;;;;8.65;7.85;;;9.80;99.90;;;;;;6221323;23;20184;-85
2022/10/09 07:29:56;;;;;;;7.57;6.93;;;9.90;99.90;;;;;;6221853;23;20599;-82
2022/10/09 07:32:23;;;;;;;6.87;6.30;;;9.90;99.90;;;;;;6221550;23;20443;-84
2022/10/09 07:34:50;;;;;;;7.47;6.70;;;10.00;99.90;;;;;;6221448;23;20447;-85
2022/10/09 07:37:17;;;;;;;9.13;6.97;;;10.10;99.90;;;;;;6221831;23;20416;-85
2022/10/09 07:39:45;;;;;;;7.57;6.77;;;10.10;99.90;;;;;;6221254;23;20794;-85
2022/10/09 07:42:12;;;;;;;8.33;6.93;;;10.30;99.90;;;;;;6221385;23;20413;-85
2022/10/09 07:44:40;;;;;;;5.50;5.00;;;10.40;99.90;;;;;;6220588;23;20439;-84
2022/10/09 07:47:06;;;;;;;6.37;5.57;;;10.50;99.90;;;;;;6220414;23;20473;-84
2022/10/09 07:49:33;;;;;;;5.87;5.03;;;10.50;99.90;;;;;;6230443;23;20444;-80
2022/10/09 07:52:00;;;;;;;6.73;6.00;;;10.60;99.90;;;;;;6240301;23;20470;-80
2022/10/09 07:54:27;;;;;;;9.47;5.80;;;10.80;99.90;;;;;;6239643;23;20435;-84
2022/10/09 07:56:55;;;;;;;6.70;5.77;;;10.90;99.90;;;;;;6223292;23;20443;-85
2022/10/09 07:59:22;;;;;;;4.90;4.50;;;10.90;99.90;;;;;;6222140;23;20411;-84
2022/10/09 08:01:49;;;;;;;5.87;5.20;;;11.00;99.90;;;;;;6223980;23;20468;-84
2022/10/09 08:04:22;;;;;;;6.33;5.80;;;11.20;99.90;;;;;;6221683;23;20439;-82
2022/10/09 08:06:49;;;;;;;5.93;5.43;;;11.20;99.90;;;;;;6221859;23;20533;-83
2022/10/09 08:09:18;;;;;;;5.70;5.20;;;11.30;99.90;;;;;;6220466;23;20435;-84
2022/10/09 08:11:45;;;;;;;7.00;5.37;;;11.40;99.90;;;;;;6220832;23;20774;-84
2022/10/09 08:14:14;;;;;;;8.93;5.83;;;11.40;99.90;;;;;;6221717;23;20497;-84
2022/10/09 08:16:41;;;;;;;6.13;5.63;;;11.40;99.90;;;;;;6221123;23;20452;-84
2022/10/09 08:19:14;;;;;;;7.13;4.83;;;11.50;99.90;;;;;;6220356;23;20757;-82
2022/10/09 08:38:16;;;;;;;4.20;3.90;;;12.40;99.90;;;;;;6093245;23;20757;-84
2022/10/09 08:40:53;;;;;;;4.67;4.27;;;12.50;99.90;;;;;;6158200;23;20407;-84
2022/10/09 08:43:30;;;;;;;4.87;4.37;;;12.60;99.90;;;;;;6200528;23;20896;-84
2022/10/09 08:45:59;;;;;;;5.23;3.80;;;12.60;99.90;;;;;;6221334;23;20492;-84
2022/10/09 08:48:29;;;;;;;4.10;3.77;;;12.70;99.90;;;;;;6221173;23;20473;-84
2022/10/09 08:50:59;;;;;;;3.60;3.33;;;12.80;99.90;;;;;;6221185;23;20424;-84
2022/10/09 08:53:35;;;;;;;5.30;4.80;;;12.90;99.90;;;;;;6221644;23;20444;-83
2022/10/09 08:56:05;;;;;;;3.43;3.23;;;13.10;99.90;;;;;;6220752;23;20400;-84
2022/10/09 08:58:33;;;;;;;4.50;4.20;;;13.20;99.90;;;;;;6220714;23;20405;-84
2022/10/09 09:01:04;;;;;;;4.40;3.80;;;13.20;99.90;;;;;;6221011;23;20449;-84
2022/10/09 09:03:59;;;;;;;4.23;3.93;;;13.30;99.90;;;;;;6220591;23;20440;-84
2022/10/09 09:06:37;;;;;;;7.33;3.37;;;13.30;99.90;;;;;;6221506;23;20397;-84
2022/10/09 09:09:15;;;;;;;5.33;4.20;;;13.40;99.90;;;;;;6220957;23;20489;-84
2022/10/09 09:11:50;;;;;;;3.33;3.13;;;13.50;99.90;;;;;;6221338;23;20523;-83
2022/10/09 09:14:29;;;;;;;3.97;3.67;;;13.60;99.90;;;;;;6221797;23;20429;-83
2022/10/09 09:17:05;;;;;;;4.60;3.70;;;13.70;99.90;;;;;;6221329;23;20389;-83
2022/10/09 09:19:48;;;;;;;4.33;3.93;;;13.70;99.90;;;;;;6220734;23;20381;-84
2022/10/09 09:22:16;;;;;;;4.30;3.80;;;13.80;99.90;;;;;;6221037;23;20470;-84
2022/10/09 09:24:47;;;;;;;8.03;3.10;;;13.90;99.90;;;;;;6220621;23;20430;-84
2022/10/09 09:27:18;;;;;;;5.43;2.90;;;14.00;99.90;;;;;;6221701;23;20397;-83
2022/10/09 09:29:52;;;;;;;4.10;3.80;;;14.20;99.90;;;;;;6221213;23;20448;-85
2022/10/09 09:32:29;;;;;;;3.90;3.60;;;14.30;99.90;;;;;;6222213;23;20432;-84
2022/10/09 09:35:11;;;;;;;4.20;3.27;;;14.40;99.90;;;;;;6221193;23;20445;-82
2022/10/09 09:37:38;;;;;;;3.40;3.10;;;14.60;99.90;;;;;;6221259;23;20430;-82
2022/10/09 09:40:13;;;;;;;3.20;2.90;;;14.70;99.90;;;;;;6221293;23;20702;-84
2022/10/09 09:42:40;;;;;;;3.13;2.50;;;14.70;99.90;;;;;;6220684;23;20390;-84
2022/10/09 09:45:13;;;;;;;2.70;2.10;;;14.90;99.90;;;;;;6219088;23;20434;-84
2022/10/09 09:52:05;;;;;;;;;;;;;;;;;;;;;
2022/10/09 09:58:52;;;;;;;;;;;;;;;;;;;;;
2022/10/09 10:21:28;;;;;;;3.20;2.77;;;17.10;96.60;;;;;;6208133;23;20408;-84
2022/10/09 10:27:53;;;;;;;4.40;3.27;;;17.50;94.30;;;;;;6199748;23;20450;-83
2022/10/09 10:30:32;;;;;;;3.93;2.70;;;17.70;93.50;;;;;;6096772;23;20507;-83
2022/10/09 10:39:50;;;;;;;6.13;5.63;;;18.20;92.80;;;;;;6160092;23;20401;-83
2022/10/09 10:42:37;;;;;;;14.30;12.80;;;18.60;92.20;;;;;;6237892;23;20450;-83
2022/10/09 10:45:13;;;;;;;9.30;8.30;;;18.90;91.30;;;;;;6231433;22;20471;-83
2022/10/09 10:47:44;;;;;;;3.70;2.73;;;19.60;91.00;;;;;;6228240;23;20389;-79
2022/10/09 10:50:19;;;;;;;2.70;2.50;;;20.20;87.70;;;;;;6233439;23;20391;-81
2022/10/09 10:53:01;;;;;;;3.27;3.00;;;20.90;84.80;;;;;;6229343;23;20530;-82
2022/10/09 10:55:44;;;;;;;3.57;3.27;;;21.70;81.40;;;;;;6221764;23;20428;-81
2022/10/09 10:58:23;;;;;;;2.80;2.50;;;22.30;77.20;;;;;;6221226;23;20918;-81
2022/10/09 11:01:24;;;;;;;2.20;2.10;;;22.90;75.60;;;;;;6223767;23;20389;-81
2022/10/09 11:04:36;;;;;;;1.30;1.30;;;23.60;73.60;;;;;;6220596;23;20457;-82
2022/10/09 11:07:13;;;;;;;2.27;2.07;;;24.30;69.50;;;;;;6221209;23;20428;-81
2022/10/09 11:09:51;;;;;;;1.93;1.70;;;24.70;65.90;;;;;;6220819;23;20417;-82
2022/10/09 11:12:28;;;;;;;2.50;1.30;;;25.20;64.40;;;;;;6220633;23;20792;-82
2022/10/09 11:15:01;;;;;;;1.70;1.47;;;25.60;60.90;;;;;;6220482;23;20435;-82
2022/10/09 11:17:35;;;;;;;2.63;1.80;;;26.00;58.70;;;;;;6221622;23;20396;-82
2022/10/09 11:20:26;;;;;;;3.63;1.77;;;26.30;58.30;;;;;;6222253;23;20384;-82
2022/10/09 11:23:05;;;;;;;2.00;1.80;;;26.40;56.30;;;;;;6221821;23;20926;-82
2022/10/09 11:25:40;;;;;;;1.53;1.33;;;26.50;55.60;;;;;;6221676;23;20492;-82
2022/10/09 11:28:13;;;;;;;2.10;1.20;;;26.60;54.50;;;;;;6221002;23;20400;-82
2022/10/09 11:30:52;;;;;;;1.70;1.60;;;26.60;54.30;;;;;;6221613;23;20396;-83
2022/10/09 11:33:29;;;;;;;3.30;1.50;;;26.80;54.50;;;;;;6222411;23;20430;-83
2022/10/09 11:36:00;;;;;;;1.20;1.20;;;26.90;53.30;;;;;;6221385;23;20532;-81
2022/10/09 11:38:32;;;;;;;1.50;1.27;;;27.10;53.10;;;;;;6221397;23;20875;-82
2022/10/09 11:41:03;;;;;;;1.47;1.37;;;27.30;51.40;;;;;;6220680;23;20418;-83
2022/10/09 11:43:49;;;;;;;1.97;1.57;;;27.20;50.70;;;;;;6218348;23;20395;-83
2022/10/09 11:46:24;;;;;;;1.57;1.30;;;27.20;51.00;;;;;;6220331;23;20410;-83
2022/10/09 11:48:58;;;;;;;1.53;1.47;;;27.40;51.50;;;;;;6221570;23;20443;-83
2022/10/09 11:51:35;;;;;;;2.30;1.60;;;27.70;50.70;;;;;;6221977;23;20873;-82
2022/10/09 11:54:03;;;;;;;1.40;1.30;;;28.10;50.00;;;;;;6221955;23;20788;-83
2022/10/09 11:56:32;;;;;;;1.87;1.67;;;28.70;49.50;;;;;;6222255;23;20408;-80
2022/10/09 11:59:02;;;;;;;3.23;1.50;;;28.60;47.00;;;;;;6222183;23;20414;-83
2022/10/09 12:01:33;;;;;;;1.60;1.50;;;28.20;47.40;;;;;;6222608;23;20398;-82
2022/10/09 12:04:02;;;;;;;1.70;1.53;;;27.90;48.80;;;;;;6222184;23;20487;-83
2022/10/09 12:06:30;;;;;;;3.97;2.00;;;27.70;48.90;;;;;;6222826;23;20406;-83
2022/10/09 12:09:00;;;;;;;1.73;1.50;;;27.70;48.60;;;;;;6222137;23;20419;-83
2022/10/09 12:11:27;;;;;;;1.27;1.20;;;27.60;47.90;;;;;;6222581;23;20406;-82
2022/10/09 12:13:56;;;;;;;1.27;1.17;;;27.80;46.90;;;;;;6222165;23;20453;-82
2022/10/09 12:16:37;;;;;;;1.43;1.03;;;28.10;47.70;;;;;;6221922;23;20917;-83
2022/10/09 12:19:11;;;;;;;1.63;1.53;;;28.20;46.60;;;;;;6221527;23;20395;-83
2022/10/09 12:21:46;;;;;;;1.37;1.20;;;28.20;46.90;;;;;;6222998;23;20390;-83
2022/10/09 12:24:17;;;;;;;3.57;1.60;;;28.20;46.90;;;;;;6222243;23;20437;-82
2022/10/09 12:26:44;;;;;;;1.57;1.43;;;28.50;47.20;;;;;;6222416;23;20408;-83
2022/10/09 12:29:21;;;;;;;4.33;1.80;;;28.70;45.80;;;;;;6222031;23;20483;-83
2022/10/09 12:31:53;;;;;;;1.77;1.50;;;29.30;46.20;;;;;;6222291;23;20395;-83
2022/10/09 12:34:23;;;;;;;2.40;1.37;;;29.20;44.20;;;;;;6221365;23;20456;-83
2022/10/09 12:36:50;;;;;;;1.73;1.57;;;28.90;44.10;;;;;;6221953;23;20392;-82
2022/10/09 12:39:21;;;;;;;1.53;1.43;;;28.80;45.50;;;;;;6221481;23;20518;-82
2022/10/09 12:41:51;;;;;;;2.20;1.80;;;28.90;45.70;;;;;;6221820;23;20395;-83
2022/10/09 12:44:26;;;;;;;1.90;1.53;;;29.10;45.60;;;;;;6222233;23;20435;-83
2022/10/09 12:46:54;;;;;;;1.40;1.30;;;29.20;44.40;;;;;;6222177;23;20398;-83
2022/10/09 12:49:24;;;;;;;1.67;1.47;;;29.50;44.80;;;;;;6221875;23;20423;-82
2022/10/09 12:51:52;;;;;;;3.40;1.80;;;29.60;43.60;;;;;;6221576;23;20412;-83
2022/10/09 12:54:19;;;;;;;1.43;1.33;;;29.70;43.70;;;;;;6220935;23;20452;-83
2022/10/09 12:56:48;;;;;;;3.87;2.07;;;29.80;42.60;;;;;;6221955;23;20412;-81
2022/10/09 12:59:16;;;;;;;1.37;1.37;;;29.60;42.90;;;;;;6221504;23;20408;-83
2022/10/09 13:01:44;;;;;;;3.23;1.40;;;29.40;42.50;;;;;;6221827;23;20408;-83
2022/10/09 13:04:25;;;;;;;1.40;1.30;;;29.20;43.10;;;;;;6221368;23;20431;-83
2022/10/09 13:06:53;;;;;;;1.40;1.30;;;29.10;44.20;;;;;;6221922;23;20396;-82
2022/10/09 13:09:23;;;;;;;3.33;1.67;;;29.20;43.70;;;;;;6221286;23;20415;-82
2022/10/09 13:11:55;;;;;;;2.40;2.20;;;29.30;43.10;;;;;;6222066;23;20405;-83
2022/10/09 13:14:26;;;;;;;2.43;1.70;;;29.50;43.80;;;;;;6220910;23;20449;-83
2022/10/09 13:16:53;;;;;;;1.73;1.60;;;29.90;43.50;;;;;;6221704;23;20401;-83
2022/10/09 13:19:24;;;;;;;1.80;1.70;;;30.20;42.60;;;;;;6220714;23;20409;-83
2022/10/09 13:22:06;;;;;;;1.53;1.40;;;30.60;42.30;;;;;;6221034;23;20895;-83
2022/10/09 13:24:34;;;;;;;1.87;1.73;;;31.10;41.80;;;;;;6222185;23;20428;-83
2022/10/09 13:27:03;;;;;;;1.70;1.60;;;31.60;41.40;;;;;;6221342;23;20409;-83
2022/10/09 13:29:30;;;;;;;1.70;1.60;;;31.70;40.40;;;;;;6221769;23;20739;-83
2022/10/09 13:31:56;;;;;;;1.27;1.17;;;31.40;40.00;;;;;;6221831;23;20435;-82
2022/10/09 13:34:27;;;;;;;2.90;1.60;;;31.00;40.60;;;;;;6221358;23;20953;-83
2022/10/09 13:36:55;;;;;;;2.17;1.47;;;30.70;41.10;;;;;;6235228;23;20397;-80
2022/10/09 13:39:21;;;;;;;2.67;1.43;;;30.30;41.10;;;;;;6237258;23;20405;-82
2022/10/09 13:41:51;;;;;;;1.70;1.30;;;30.10;41.70;;;;;;6227610;23;20410;-84
2022/10/09 13:44:23;;;;;;;1.67;1.57;;;29.80;42.10;;;;;;6220207;23;20441;-83
2022/10/09 13:46:58;;;;;;;1.80;1.70;;;29.40;42.80;;;;;;6220757;23;20487;-84
2022/10/09 13:49:27;;;;;;;2.73;1.80;;;29.10;43.00;;;;;;6220481;23;20422;-83
2022/10/09 13:51:54;;;;;;;1.80;1.67;;;29.00;43.60;;;;;;6220443;23;20455;-85
2022/10/09 13:54:20;;;;;;;2.53;1.43;;;28.90;43.60;;;;;;6223186;23;20422;-85
2022/10/09 13:56:47;;;;;;;2.30;1.70;;;28.70;43.60;;;;;;6224792;23;20464;-84
2022/10/09 13:59:14;;;;;;;2.60;1.80;;;28.40;44.20;;;;;;6222512;23;20417;-85
2022/10/09 14:01:41;;;;;;;2.13;1.83;;;28.00;44.50;;;;;;6222089;23;20414;-85
2022/10/09 14:04:08;;;;;;;1.87;1.77;;;27.50;45.20;;;;;;6221775;23;20452;-84